Time;durP1;ratioP1;P1;durP2;ratioP2;P2;SDS_P1;SDS_P2;PMS_P1;PMS_P2;Temp;Humidity;BMP_temperature;BMP_pressure;BME280_temperature;BME280_humidity;BME280_pressure;Samples;Min_cycle;Max_cycle;Signal;HPM_P1;HPM_P2
2021/03/23 00:01:28;;;;;;;3.83;1.98;;;6.00;99.40;;;;;;5084103;28;20051;-68
2021/03/23 00:03:54;;;;;;;3.25;2.15;;;6.00;99.30;;;;;;5086902;28;20040;-67
2021/03/23 00:06:25;;;;;;;7.88;3.28;;;6.00;99.30;;;;;;5085693;28;20040;-67
2021/03/23 00:08:54;;;;;;;7.63;2.20;;;6.00;99.40;;;;;;5083154;28;20059;-68
2021/03/23 00:11:32;;;;;;;6.68;2.25;;;5.90;99.30;;;;;;5087086;28;20036;-67
2021/03/23 00:14:00;;;;;;;5.05;2.15;;;6.00;99.30;;;;;;5087435;28;20048;-67
2021/03/23 00:16:29;;;;;;;5.10;2.03;;;5.90;99.40;;;;;;5084195;28;20117;-67
2021/03/23 00:18:55;;;;;;;4.30;2.08;;;5.90;99.30;;;;;;5084749;28;20111;-68
2021/03/23 00:21:22;;;;;;;3.25;1.58;;;5.90;99.40;;;;;;5087063;28;20104;-68
2021/03/23 00:23:49;;;;;;;5.22;1.95;;;5.90;99.40;;;;;;5083866;28;20093;-68
2021/03/23 00:26:17;;;;;;;5.40;1.88;;;5.90;99.50;;;;;;5084810;28;20078;-67
2021/03/23 00:28:47;;;;;;;4.47;1.45;;;5.90;99.50;;;;;;5085879;28;20115;-68
2021/03/23 00:31:17;;;;;;;3.50;1.27;;;5.90;99.70;;;;;;5087744;28;20111;-68
2021/03/23 00:33:43;;;;;;;3.90;1.50;;;5.90;99.50;;;;;;5083833;28;20040;-67
2021/03/23 00:36:09;;;;;;;3.90;1.23;;;5.90;99.60;;;;;;5083417;28;20124;-67
2021/03/23 00:38:37;;;;;;;1.70;1.27;;;5.90;99.50;;;;;;5081927;28;20112;-67
2021/03/23 00:41:05;;;;;;;4.88;1.55;;;5.90;99.40;;;;;;5088182;28;20561;-68
2021/03/23 00:43:31;;;;;;;5.82;1.55;;;5.90;99.50;;;;;;5086452;28;20375;-67
2021/03/23 00:45:56;;;;;;;6.32;1.70;;;5.90;99.60;;;;;;5082872;28;20054;-67
2021/03/23 00:48:23;;;;;;;3.15;1.15;;;5.90;99.50;;;;;;5087659;28;20075;-68
2021/03/23 00:50:48;;;;;;;6.22;1.30;;;5.90;99.70;;;;;;5086864;28;20052;-67
2021/03/23 00:53:15;;;;;;;4.97;1.33;;;5.90;99.70;;;;;;5083476;28;20075;-68
2021/03/23 00:55:40;;;;;;;4.75;1.33;;;5.90;99.60;;;;;;5089697;28;20044;-68
2021/03/23 00:58:06;;;;;;;3.03;1.40;;;5.90;99.70;;;;;;5087306;28;20061;-67
2021/03/23 01:00:33;;;;;;;4.10;1.52;;;6.00;99.60;;;;;;5085162;28;20042;-67
2021/03/23 01:02:59;;;;;;;2.85;1.20;;;6.00;99.70;;;;;;5085308;28;20051;-67
2021/03/23 01:05:28;;;;;;;3.47;1.23;;;6.00;99.60;;;;;;5086883;28;20034;-67
2021/03/23 01:07:55;;;;;;;3.40;1.35;;;5.90;99.60;;;;;;5084293;28;20067;-67
2021/03/23 01:10:23;;;;;;;3.80;1.95;;;5.90;99.80;;;;;;5089209;28;20032;-67
2021/03/23 01:12:49;;;;;;;3.55;1.73;;;6.00;99.70;;;;;;5087676;28;20044;-67
2021/03/23 01:15:20;;;;;;;5.50;1.75;;;6.00;99.80;;;;;;5089463;28;20043;-68
2021/03/23 01:17:46;;;;;;;2.63;1.60;;;6.00;99.70;;;;;;5088304;28;20036;-67
2021/03/23 01:20:19;;;;;;;4.22;2.08;;;6.00;99.80;;;;;;5089707;28;20066;-67
2021/03/23 01:22:45;;;;;;;5.07;2.22;;;6.00;99.80;;;;;;5088445;28;20044;-67
2021/03/23 01:25:12;;;;;;;4.18;1.77;;;6.00;99.90;;;;;;5087642;28;20051;-68
2021/03/23 01:27:38;;;;;;;5.60;2.10;;;6.00;99.90;;;;;;5090008;28;20040;-68
2021/03/23 01:30:07;;;;;;;5.70;2.63;;;6.00;99.90;;;;;;5087951;28;20059;-68
2021/03/23 01:32:33;;;;;;;5.38;2.40;;;6.00;99.90;;;;;;5090329;28;20044;-67
2021/03/23 01:34:58;;;;;;;12.80;2.80;;;6.00;99.90;;;;;;5091323;28;20201;-68
2021/03/23 01:37:24;;;;;;;5.85;2.53;;;6.00;99.90;;;;;;5089118;28;20089;-67
2021/03/23 01:39:50;;;;;;;8.10;3.53;;;6.00;99.90;;;;;;5093458;28;20044;-67
2021/03/23 01:42:17;;;;;;;5.80;2.22;;;6.00;99.90;;;;;;5090315;28;20049;-67
2021/03/23 01:44:45;;;;;;;5.38;2.30;;;6.00;99.90;;;;;;5090059;28;20039;-67
2021/03/23 01:47:11;;;;;;;5.75;2.42;;;6.00;99.90;;;;;;5090021;28;20032;-67
2021/03/23 01:49:41;;;;;;;7.78;2.88;;;6.00;99.90;;;;;;5087503;28;20043;-67
2021/03/23 01:52:13;;;;;;;3.88;2.60;;;6.00;99.90;;;;;;5088254;28;20040;-67
2021/03/23 01:54:54;;;;;;;7.47;2.70;;;6.00;99.90;;;;;;5090911;28;20127;-67
2021/03/23 01:57:19;;;;;;;7.82;2.55;;;6.00;99.90;;;;;;5091613;28;20036;-68
2021/03/23 01:59:50;;;;;;;5.15;2.60;;;6.00;99.90;;;;;;5087775;28;20050;-67
2021/03/23 02:02:16;;;;;;;11.90;3.55;;;6.00;99.90;;;;;;5085252;28;20031;-67
2021/03/23 02:04:41;;;;;;;7.78;3.35;;;6.00;99.90;;;;;;5087551;28;20040;-67
2021/03/23 02:07:07;;;;;;;5.28;2.38;;;5.90;99.90;;;;;;5084018;28;20115;-67
2021/03/23 02:09:35;;;;;;;4.22;2.67;;;5.90;99.90;;;;;;5087663;28;20165;-67
2021/03/23 02:12:08;;;;;;;3.92;2.47;;;5.90;99.90;;;;;;5089153;28;20562;-67
2021/03/23 02:14:37;;;;;;;9.25;2.80;;;5.90;99.90;;;;;;5086107;28;20133;-67
2021/03/23 02:17:26;;;;;;;4.70;3.10;;;5.80;99.90;;;;;;5086750;28;20097;-68
2021/03/23 02:19:58;;;;;;;5.45;2.58;;;5.80;99.90;;;;;;5086482;28;20043;-67
2021/03/23 02:22:30;;;;;;;5.03;2.63;;;5.70;99.90;;;;;;5084717;28;20082;-67
2021/03/23 02:24:56;;;;;;;5.65;3.13;;;5.70;99.90;;;;;;5086274;28;20043;-67
2021/03/23 02:27:25;;;;;;;5.88;2.97;;;5.70;99.90;;;;;;5086270;28;20394;-68
2021/03/23 02:29:53;;;;;;;10.68;3.38;;;5.60;99.90;;;;;;5084010;28;20057;-67
2021/03/23 02:32:20;;;;;;;11.38;3.83;;;5.60;99.90;;;;;;5085094;28;20032;-67
2021/03/23 02:34:46;;;;;;;5.10;3.53;;;5.60;99.90;;;;;;5085241;28;20096;-67
2021/03/23 02:37:15;;;;;;;10.02;3.67;;;5.50;99.90;;;;;;5084722;28;20102;-68
2021/03/23 02:39:41;;;;;;;8.35;3.50;;;5.50;99.90;;;;;;5085173;28;20482;-67
2021/03/23 02:42:09;;;;;;;5.95;3.53;;;5.40;99.90;;;;;;5090008;28;20047;-67
2021/03/23 02:44:52;;;;;;;6.43;3.30;;;5.50;99.90;;;;;;5084787;28;20509;-67
2021/03/23 02:47:19;;;;;;;9.35;4.05;;;5.40;99.90;;;;;;5089644;28;20048;-67
2021/03/23 02:49:45;;;;;;;8.05;4.15;;;5.40;99.90;;;;;;5086102;28;20032;-67
2021/03/23 02:52:12;;;;;;;8.48;3.40;;;5.40;99.90;;;;;;5088616;28;20036;-67
2021/03/23 02:54:38;;;;;;;7.40;3.33;;;5.40;99.90;;;;;;5086824;28;20036;-68
2021/03/23 02:57:05;;;;;;;10.13;3.85;;;5.40;99.90;;;;;;5086646;28;20486;-67
2021/03/23 02:59:31;;;;;;;5.07;3.30;;;5.30;99.90;;;;;;5088496;28;20040;-67
2021/03/23 03:01:57;;;;;;;5.75;3.38;;;5.30;99.90;;;;;;5088347;28;20044;-68
2021/03/23 03:04:23;;;;;;;7.45;4.53;;;5.30;99.90;;;;;;5086000;28;20056;-67
2021/03/23 03:06:48;;;;;;;6.95;3.50;;;5.30;99.90;;;;;;5083194;28;20893;-67
2021/03/23 03:09:14;;;;;;;8.95;3.72;;;5.30;99.90;;;;;;5083989;28;20043;-67
2021/03/23 03:11:40;;;;;;;6.93;3.50;;;5.20;99.90;;;;;;5083823;28;20039;-67
2021/03/23 03:14:06;;;;;;;5.65;3.45;;;5.10;99.90;;;;;;5086344;28;20036;-67
2021/03/23 03:16:31;;;;;;;8.27;3.92;;;5.20;99.90;;;;;;5083458;28;20036;-67
2021/03/23 03:18:58;;;;;;;6.75;3.65;;;5.10;99.90;;;;;;5085992;28;20044;-67
2021/03/23 03:21:23;;;;;;;6.65;4.30;;;5.10;99.90;;;;;;5085243;28;20533;-67
2021/03/23 03:23:50;;;;;;;8.35;4.47;;;5.00;99.90;;;;;;5085989;28;20036;-67
2021/03/23 03:26:15;;;;;;;7.60;4.00;;;5.00;99.90;;;;;;5081885;28;20036;-68
2021/03/23 03:28:49;;;;;;;7.78;3.97;;;5.00;99.90;;;;;;5082037;28;20039;-67
2021/03/23 03:31:18;;;;;;;5.25;3.83;;;5.00;99.90;;;;;;5113721;27;20070;-67
2021/03/23 03:33:44;;;;;;;5.95;3.78;;;5.00;99.90;;;;;;5087231;28;20050;-67
2021/03/23 03:36:09;;;;;;;8.27;4.32;;;5.00;99.90;;;;;;5089851;28;20127;-67
2021/03/23 03:38:35;;;;;;;4.97;3.85;;;4.90;99.90;;;;;;5087784;28;20065;-67
2021/03/23 03:41:01;;;;;;;6.53;4.30;;;4.90;99.90;;;;;;5085550;28;20051;-68
2021/03/23 03:43:30;;;;;;;4.72;3.92;;;4.90;99.90;;;;;;5082534;28;20480;-67
2021/03/23 03:45:56;;;;;;;8.68;5.15;;;4.90;99.90;;;;;;5085770;28;20093;-67
2021/03/23 03:48:21;;;;;;;7.22;5.18;;;4.90;99.90;;;;;;5085377;28;20028;-67
2021/03/23 03:50:48;;;;;;;8.82;5.10;;;4.80;99.90;;;;;;5085333;28;20036;-67
2021/03/23 03:53:13;;;;;;;9.38;5.20;;;4.80;99.90;;;;;;5091921;28;20083;-68
2021/03/23 03:55:43;;;;;;;8.55;4.95;;;4.80;99.90;;;;;;5088033;28;20043;-67
2021/03/23 03:58:10;;;;;;;8.38;5.35;;;4.80;99.90;;;;;;5085605;28;20036;-68
2021/03/23 04:00:36;;;;;;;10.65;6.07;;;4.80;99.90;;;;;;5084986;28;20050;-67
2021/03/23 04:03:05;;;;;;;12.63;7.50;;;4.90;99.90;;;;;;5084515;28;20024;-68
2021/03/23 04:05:35;;;;;;;10.57;6.43;;;4.80;99.90;;;;;;5083016;28;20036;-67
2021/03/23 04:08:03;;;;;;;12.32;6.55;;;4.80;99.90;;;;;;5087707;28;20134;-67
2021/03/23 04:10:29;;;;;;;11.15;7.22;;;4.90;99.90;;;;;;5084884;28;20059;-67
2021/03/23 04:12:55;;;;;;;13.80;7.47;;;4.90;99.90;;;;;;5085655;28;20159;-67
2021/03/23 04:15:27;;;;;;;14.35;8.15;;;4.90;99.90;;;;;;5084846;28;20561;-68
2021/03/23 04:17:53;;;;;;;12.35;7.85;;;4.90;99.90;;;;;;5085303;28;20068;-68
2021/03/23 04:20:20;;;;;;;13.98;7.85;;;4.80;99.90;;;;;;5084041;28;20040;-68
2021/03/23 04:22:47;;;;;;;13.93;8.02;;;4.90;99.90;;;;;;5087708;28;20047;-67
2021/03/23 04:25:15;;;;;;;14.07;7.97;;;4.80;99.90;;;;;;5086789;28;20055;-68
2021/03/23 04:27:41;;;;;;;12.52;8.02;;;4.90;99.90;;;;;;5085624;28;20037;-68
2021/03/23 04:30:09;;;;;;;13.82;7.95;;;4.90;99.90;;;;;;5088207;28;20032;-68
2021/03/23 04:32:35;;;;;;;12.57;7.85;;;4.90;99.90;;;;;;5086397;28;20454;-67
2021/03/23 04:35:01;;;;;;;14.68;8.70;;;5.00;99.90;;;;;;5084954;28;20028;-67
2021/03/23 04:37:27;;;;;;;16.77;8.23;;;4.90;99.90;;;;;;5091381;28;20032;-68
2021/03/23 04:39:53;;;;;;;12.68;8.50;;;5.00;99.90;;;;;;5087409;28;20545;-68
2021/03/23 04:42:19;;;;;;;14.75;8.73;;;5.00;99.90;;;;;;5090166;28;20040;-68
2021/03/23 04:44:44;;;;;;;13.00;8.73;;;5.00;99.90;;;;;;5085458;28;20051;-68
2021/03/23 04:47:10;;;;;;;15.35;8.50;;;5.00;99.90;;;;;;5089259;28;20036;-67
2021/03/23 04:49:36;;;;;;;12.50;8.85;;;5.00;99.90;;;;;;5090536;28;20038;-67
2021/03/23 04:52:02;;;;;;;10.90;7.95;;;4.90;99.90;;;;;;5091954;28;20028;-68
2021/03/23 04:54:29;;;;;;;13.85;8.75;;;5.00;99.90;;;;;;5090374;28;20115;-68
2021/03/23 04:56:55;;;;;;;17.98;8.57;;;5.00;99.90;;;;;;5092365;28;20079;-68
2021/03/23 04:59:20;;;;;;;14.60;8.80;;;5.00;99.90;;;;;;5087366;28;20072;-68
2021/03/23 05:01:46;;;;;;;14.55;8.98;;;5.00;99.90;;;;;;5087639;28;20517;-68
2021/03/23 05:04:17;;;;;;;12.95;8.40;;;5.00;99.90;;;;;;5090764;28;20032;-68
2021/03/23 05:06:43;;;;;;;12.35;7.38;;;5.00;99.90;;;;;;5088738;28;20126;-68
2021/03/23 05:09:09;;;;;;;13.18;9.20;;;5.00;99.90;;;;;;5088662;28;20131;-68
2021/03/23 05:11:36;;;;;;;11.65;8.18;;;5.10;99.90;;;;;;5086355;28;20039;-68
2021/03/23 05:14:05;;;;;;;15.30;9.68;;;5.00;99.90;;;;;;5092019;28;20394;-68
2021/03/23 05:16:30;;;;;;;13.57;9.45;;;5.10;99.90;;;;;;5090551;28;20044;-68
2021/03/23 05:18:56;;;;;;;13.40;9.20;;;5.10;99.90;;;;;;5092688;28;20505;-68
2021/03/23 05:21:23;;;;;;;14.10;9.35;;;5.10;99.90;;;;;;5085204;28;20040;-67
2021/03/23 05:23:50;;;;;;;16.77;9.57;;;5.10;99.90;;;;;;5088786;28;20047;-68
2021/03/23 05:26:16;;;;;;;13.55;8.95;;;5.10;99.90;;;;;;5091141;28;20039;-68
2021/03/23 05:28:46;;;;;;;13.35;8.90;;;5.10;99.90;;;;;;5088330;28;20085;-68
2021/03/23 05:31:12;;;;;;;19.15;10.18;;;5.20;99.90;;;;;;5089527;28;20076;-68
2021/03/23 05:33:38;;;;;;;15.85;9.98;;;5.20;99.90;;;;;;5087954;28;20039;-68
2021/03/23 05:36:04;;;;;;;16.30;11.02;;;5.20;99.90;;;;;;5088113;28;20097;-68
2021/03/23 05:38:30;;;;;;;13.32;9.70;;;5.20;99.90;;;;;;5087576;28;20051;-68
2021/03/23 05:41:35;;;;;;;15.73;10.57;;;5.20;99.90;;;;;;5088992;28;20123;-68
2021/03/23 05:44:21;;;;;;;13.27;9.75;;;5.20;99.90;;;;;;5047261;28;20049;-67
2021/03/23 05:46:48;;;;;;;16.75;10.25;;;5.20;99.90;;;;;;5087514;28;20066;-68
2021/03/23 05:49:13;;;;;;;14.43;9.98;;;5.20;99.90;;;;;;5085194;28;20047;-68
2021/03/23 05:51:44;;;;;;;19.58;10.73;;;5.20;99.90;;;;;;5087725;28;20043;-68
2021/03/23 05:54:23;;;;;;;20.73;11.60;;;5.20;99.90;;;;;;5090025;28;20032;-68
2021/03/23 05:56:53;;;;;;;24.35;9.30;;;5.20;99.90;;;;;;5091680;28;20044;-68
2021/03/23 05:59:57;;;;;;;14.52;9.55;;;5.30;99.90;;;;;;5089120;28;20170;-68
2021/03/23 06:02:45;;;;;;;14.00;9.23;;;5.20;99.90;;;;;;5086003;28;20127;-68
2021/03/23 06:05:29;;;;;;;17.83;10.10;;;5.30;99.90;;;;;;5089373;28;20071;-68
2021/03/23 06:08:00;;;;;;;19.35;10.35;;;5.20;99.90;;;;;;5089598;28;20063;-68
2021/03/23 06:10:26;;;;;;;20.67;10.35;;;5.30;99.90;;;;;;5086007;28;20031;-68
2021/03/23 06:13:16;;;;;;;23.17;10.43;;;5.30;99.90;;;;;;5087722;28;20064;-68
2021/03/23 06:16:25;;;;;;;17.20;10.80;;;5.30;99.90;;;;;;5087308;28;20166;-68
2021/03/23 06:19:09;;;;;;;16.63;10.57;;;5.30;99.90;;;;;;5071877;28;20064;-68
2021/03/23 06:22:14;;;;;;;20.63;9.98;;;5.40;99.90;;;;;;5088645;28;20036;-68
2021/03/23 06:25:13;;;;;;;14.68;9.63;;;5.40;99.90;;;;;;5045777;28;20041;-68
2021/03/23 06:27:45;;;;;;;12.25;9.07;;;5.40;99.90;;;;;;5090140;28;20052;-68
2021/03/23 06:30:37;;;;;;;14.65;9.35;;;5.50;99.90;;;;;;5089276;28;20700;-68
2021/03/23 06:33:03;;;;;;;19.55;8.68;;;5.60;99.90;;;;;;5086512;28;20040;-68
2021/03/23 06:35:33;;;;;;;15.55;9.05;;;5.60;99.90;;;;;;5090228;28;20115;-68
2021/03/23 06:38:01;;;;;;;19.15;9.57;;;5.70;99.90;;;;;;5089626;28;20032;-68
2021/03/23 06:40:34;;;;;;;15.13;9.32;;;5.70;99.90;;;;;;5088142;28;20032;-68
2021/03/23 06:43:17;;;;;;;22.83;9.60;;;5.70;99.90;;;;;;5090297;28;20044;-68
2021/03/23 06:45:43;;;;;;;19.73;10.00;;;5.70;99.90;;;;;;5084718;28;20069;-67
2021/03/23 06:48:20;;;;;;;19.98;9.52;;;5.70;99.90;;;;;;5089764;28;20054;-68
2021/03/23 06:50:46;;;;;;;23.27;9.52;;;5.70;99.90;;;;;;5085451;28;20048;-68
2021/03/23 06:53:14;;;;;;;14.18;9.02;;;5.70;99.90;;;;;;5089304;28;20044;-68
2021/03/23 06:55:47;;;;;;;18.25;9.68;;;5.70;99.90;;;;;;5085746;28;20032;-68
2021/03/23 06:58:22;;;;;;;15.98;9.90;;;5.80;99.90;;;;;;5089088;28;20115;-68
2021/03/23 07:01:12;;;;;;;16.10;10.57;;;5.80;99.90;;;;;;5086246;28;20047;-68
2021/03/23 07:03:38;;;;;;;13.25;9.85;;;5.90;99.90;;;;;;5090160;28;20036;-68
2021/03/23 07:06:27;;;;;;;23.58;11.32;;;5.90;99.90;;;;;;5087833;28;20043;-68
2021/03/23 07:09:09;;;;;;;18.27;10.27;;;6.00;99.90;;;;;;5078492;28;20044;-68
2021/03/23 07:11:54;;;;;;;20.65;10.52;;;6.00;99.90;;;;;;5089705;28;20543;-68
2021/03/23 07:14:39;;;;;;;20.95;11.80;;;6.10;99.90;;;;;;5088515;28;20035;-68
2021/03/23 07:17:13;;;;;;;19.45;13.20;;;6.20;99.90;;;;;;5088769;28;20032;-68
2021/03/23 07:19:46;;;;;;;23.98;12.93;;;6.30;99.90;;;;;;5087956;28;20035;-68
2021/03/23 07:22:32;;;;;;;23.60;12.90;;;6.30;99.90;;;;;;5084679;28;20406;-68
2021/03/23 07:24:58;;;;;;;33.38;13.88;;;6.40;99.90;;;;;;5086672;28;20053;-68
2021/03/23 07:27:27;;;;;;;22.02;13.65;;;6.40;99.70;;;;;;5085085;28;20048;-68
2021/03/23 07:30:16;;;;;;;24.23;14.65;;;6.50;99.60;;;;;;5087777;28;20085;-68
2021/03/23 07:32:46;;;;;;;46.53;17.23;;;6.50;99.80;;;;;;5065858;28;20063;-68
2021/03/23 07:35:32;;;;;;;29.02;16.60;;;6.70;99.90;;;;;;5080489;28;20036;-68
2021/03/23 07:38:23;;;;;;;38.15;21.88;;;6.80;99.80;;;;;;5087354;28;20048;-68
2021/03/23 07:40:52;;;;;;;43.13;22.45;;;6.90;99.80;;;;;;5084823;28;20032;-68
2021/03/23 07:43:38;;;;;;;36.30;22.67;;;6.90;99.80;;;;;;5088084;28;20032;-68
2021/03/23 07:46:18;;;;;;;41.25;23.50;;;7.00;99.70;;;;;;5083002;28;20043;-68
2021/03/23 07:48:58;;;;;;;48.10;25.27;;;7.20;99.70;;;;;;5083676;28;20040;-68
2021/03/23 07:51:28;;;;;;;48.83;26.05;;;7.30;99.50;;;;;;5087892;28;20036;-68
2021/03/23 07:54:02;;;;;;;41.97;25.83;;;7.40;99.90;;;;;;5087031;28;20527;-69
2021/03/23 07:56:38;;;;;;;42.83;26.00;;;7.50;99.30;;;;;;5088840;28;20114;-68
2021/03/23 07:59:19;;;;;;;43.92;27.15;;;7.60;99.10;;;;;;5087376;28;20133;-68
2021/03/23 08:01:47;;;;;;;70.72;28.58;;;7.60;99.00;;;;;;5085865;28;20044;-68
2021/03/23 08:04:36;;;;;;;44.10;28.30;;;7.60;99.30;;;;;;5088087;28;20040;-68
2021/03/23 08:07:20;;;;;;;44.70;26.77;;;7.70;99.40;;;;;;5078320;28;20471;-68
2021/03/23 08:09:48;;;;;;;48.97;29.20;;;7.70;99.10;;;;;;5083574;28;20472;-68
2021/03/23 08:12:46;;;;;;;49.20;28.35;;;7.80;99.10;;;;;;5087670;28;20119;-69
2021/03/23 08:15:46;;;;;;;50.10;29.65;;;7.90;99.40;;;;;;5087333;28;20452;-68
2021/03/23 08:18:55;;;;;;;45.08;29.00;;;8.00;99.10;;;;;;5087596;28;20040;-69
2021/03/23 08:21:27;;;;;;;47.55;29.10;;;8.20;98.70;;;;;;5086880;28;20078;-69
2021/03/23 08:24:03;;;;;;;51.08;28.35;;;8.40;98.60;;;;;;5086910;28;20044;-69
2021/03/23 08:26:53;;;;;;;45.97;28.77;;;8.50;98.10;;;;;;5086026;28;20402;-68
2021/03/23 08:29:26;;;;;;;45.33;29.33;;;8.60;98.20;;;;;;5089556;28;20093;-69
2021/03/23 08:32:07;;;;;;;44.85;28.85;;;8.70;97.90;;;;;;5086471;28;20070;-69
2021/03/23 08:34:50;;;;;;;45.83;28.63;;;8.80;97.70;;;;;;5086157;28;20663;-69
2021/03/23 08:37:37;;;;;;;43.75;29.50;;;8.90;97.40;;;;;;5086685;28;20404;-69
2021/03/23 08:40:33;;;;;;;40.78;28.73;;;9.10;97.10;;;;;;5087910;28;20595;-69
2021/03/23 08:42:59;;;;;;;40.88;27.65;;;9.30;96.70;;;;;;5086461;28;20064;-69
2021/03/23 08:45:29;;;;;;;41.00;27.05;;;9.40;96.30;;;;;;5084599;28;20525;-69
2021/03/23 08:48:13;;;;;;;40.67;28.50;;;9.50;96.30;;;;;;5087378;28;20063;-69
2021/03/23 08:50:42;;;;;;;41.42;29.45;;;9.50;96.00;;;;;;5087761;28;20036;-69
2021/03/23 08:53:33;;;;;;;37.28;26.45;;;9.50;96.30;;;;;;5087401;28;20107;-66
2021/03/23 08:56:00;;;;;;;37.67;27.10;;;9.50;96.30;;;;;;5087795;28;20068;-66
2021/03/23 08:58:54;;;;;;;38.67;26.42;;;9.60;96.50;;;;;;5088914;28;20452;-66
2021/03/23 09:01:26;;;;;;;45.40;28.58;;;9.50;96.10;;;;;;5085240;28;20046;-66
2021/03/23 09:04:11;;;;;;;39.25;26.95;;;9.40;96.40;;;;;;5086550;28;20040;-66
2021/03/23 09:06:53;;;;;;;39.50;26.35;;;9.40;96.20;;;;;;5085765;28;20062;-66
2021/03/23 09:09:44;;;;;;;45.03;27.73;;;9.40;95.80;;;;;;5085965;28;20490;-66
2021/03/23 09:12:10;;;;;;;40.63;25.98;;;9.50;95.80;;;;;;5079836;28;20559;-66
2021/03/23 09:15:15;;;;;;;33.60;26.35;;;9.50;95.90;;;;;;5085195;28;20036;-66
2021/03/23 09:18:00;;;;;;;35.17;25.05;;;9.70;96.10;;;;;;5086302;28;20040;-66
2021/03/23 09:20:33;;;;;;;33.72;23.88;;;9.70;95.40;;;;;;5086832;28;20036;-66
2021/03/23 09:23:20;;;;;;;26.85;22.42;;;9.90;95.40;;;;;;5088923;28;20036;-66
2021/03/23 09:25:56;;;;;;;29.98;23.13;;;10.00;94.60;;;;;;5090308;28;20069;-66
2021/03/23 09:28:30;;;;;;;31.27;22.20;;;10.10;94.40;;;;;;5090711;28;20036;-66
2021/03/23 09:31:00;;;;;;;27.35;20.67;;;10.20;95.10;;;;;;5090743;28;20516;-66
2021/03/23 09:33:26;;;;;;;35.33;22.70;;;10.30;94.60;;;;;;5088770;28;20032;-66
2021/03/23 09:36:11;;;;;;;27.48;21.15;;;10.30;93.70;;;;;;5083986;28;20053;-66
2021/03/23 09:38:47;;;;;;;32.78;23.48;;;10.20;93.10;;;;;;5086122;28;20033;-66
2021/03/23 09:41:22;;;;;;;31.13;23.30;;;10.10;94.50;;;;;;5086130;28;20061;-66
2021/03/23 09:43:54;;;;;;;29.70;23.20;;;10.10;94.50;;;;;;5088604;28;20181;-66
2021/03/23 09:46:22;;;;;;;29.10;21.90;;;9.90;93.80;;;;;;5089076;28;20044;-66
2021/03/23 09:48:55;;;;;;;32.70;22.42;;;10.00;94.30;;;;;;5085846;28;20405;-66
2021/03/23 09:51:37;;;;;;;26.17;22.13;;;9.90;94.50;;;;;;5084005;28;20527;-66
2021/03/23 09:54:22;;;;;;;34.80;24.17;;;9.90;94.30;;;;;;5085357;28;20118;-66
2021/03/23 09:56:49;;;;;;;33.78;25.25;;;9.80;94.50;;;;;;5083887;28;20093;-66
2021/03/23 09:59:21;;;;;;;32.33;23.48;;;9.80;94.40;;;;;;5086782;28;20106;-66
2021/03/23 10:01:57;;;;;;;30.73;22.95;;;9.80;94.30;;;;;;5083472;28;20049;-66
2021/03/23 10:04:38;;;;;;;26.48;22.75;;;9.90;94.10;;;;;;5085707;28;20028;-66
2021/03/23 10:07:23;;;;;;;32.70;25.77;;;9.90;94.60;;;;;;5082322;28;20048;-66
2021/03/23 10:09:49;;;;;;;32.42;24.33;;;10.00;94.60;;;;;;5086520;28;20048;-66
2021/03/23 10:12:28;;;;;;;28.90;22.88;;;10.00;93.60;;;;;;5085365;28;20096;-66
2021/03/23 10:14:54;;;;;;;37.75;24.65;;;10.10;93.70;;;;;;5083659;28;20036;-66
2021/03/23 10:17:28;;;;;;;29.50;23.20;;;10.10;93.70;;;;;;5083653;28;20497;-66
2021/03/23 10:19:59;;;;;;;34.00;24.00;;;10.20;93.50;;;;;;5088868;28;20036;-66
2021/03/23 10:22:28;;;;;;;33.47;23.55;;;10.10;93.10;;;;;;5088725;28;20040;-66
2021/03/23 10:24:58;;;;;;;32.35;23.88;;;10.10;93.60;;;;;;5084073;28;20036;-66
2021/03/23 10:27:31;;;;;;;38.85;25.42;;;10.10;93.90;;;;;;5083248;28;20051;-66
2021/03/23 10:30:04;;;;;;;35.10;23.75;;;10.20;94.10;;;;;;5084689;28;20032;-66
2021/03/23 10:32:35;;;;;;;33.78;23.77;;;10.10;93.40;;;;;;5084374;28;20028;-66
2021/03/23 10:35:05;;;;;;;32.42;23.80;;;10.10;93.30;;;;;;5082957;28;20768;-66
2021/03/23 10:37:32;;;;;;;33.38;24.45;;;10.10;93.10;;;;;;5084357;28;20036;-66
2021/03/23 10:39:59;;;;;;;41.00;25.50;;;10.10;93.00;;;;;;5084151;28;20450;-66
2021/03/23 10:42:27;;;;;;;35.35;25.33;;;10.10;93.30;;;;;;5087859;28;20028;-66
2021/03/23 10:45:11;;;;;;;35.53;24.52;;;10.20;93.80;;;;;;5085816;28;20032;-66
2021/03/23 10:47:39;;;;;;;32.55;24.27;;;10.20;93.90;;;;;;5089723;28;20107;-66
2021/03/23 10:50:24;;;;;;;29.98;23.42;;;10.30;93.50;;;;;;5090061;28;20134;-66
2021/03/23 10:52:52;;;;;;;29.63;23.55;;;10.30;92.30;;;;;;5089170;28;20028;-66
2021/03/23 10:55:31;;;;;;;30.63;23.65;;;10.30;92.10;;;;;;5086623;28;20043;-66
2021/03/23 10:58:16;;;;;;;27.77;24.50;;;10.20;92.60;;;;;;5088267;28;20766;-66
2021/03/23 11:00:42;;;;;;;32.80;24.83;;;10.20;93.20;;;;;;5101633;27;20048;-66
2021/03/23 11:03:18;;;;;;;30.27;25.50;;;10.20;92.80;;;;;;5088490;28;20120;-66
2021/03/23 11:05:50;;;;;;;30.17;25.23;;;10.20;93.10;;;;;;5087406;28;20035;-66
2021/03/23 11:08:16;;;;;;;30.27;23.80;;;10.20;93.00;;;;;;5086117;28;20065;-66
2021/03/23 11:10:44;;;;;;;30.98;24.80;;;10.10;92.70;;;;;;5088234;28;20056;-68
2021/03/23 11:13:12;;;;;;;29.77;25.52;;;10.10;92.70;;;;;;5087841;28;20086;-69
2021/03/23 11:15:41;;;;;;;39.45;28.58;;;10.10;93.10;;;;;;5087854;28;20041;-69
2021/03/23 11:18:37;;;;;;;35.90;28.25;;;10.20;93.20;;;;;;5086334;28;20382;-69
2021/03/23 11:21:04;;;;;;;33.58;29.05;;;10.10;93.00;;;;;;5083312;28;20070;-69
2021/03/23 11:23:45;;;;;;;39.65;31.98;;;10.10;93.50;;;;;;5090982;28;20037;-69
2021/03/23 11:26:29;;;;;;;42.45;32.35;;;10.00;92.90;;;;;;5082427;28;20128;-69
2021/03/23 11:28:57;;;;;;;39.22;31.30;;;10.00;94.20;;;;;;5082245;28;20032;-69
2021/03/23 11:31:27;;;;;;;39.95;30.17;;;10.00;94.30;;;;;;5082241;28;20069;-69
2021/03/23 11:33:53;;;;;;;42.10;32.22;;;10.10;93.90;;;;;;5083430;28;20122;-69
2021/03/23 11:36:20;;;;;;;40.00;31.73;;;10.10;94.10;;;;;;5082259;28;20668;-69
2021/03/23 11:38:46;;;;;;;39.70;33.53;;;10.10;93.50;;;;;;5082200;28;20097;-69
2021/03/23 11:41:25;;;;;;;42.28;32.08;;;10.10;93.90;;;;;;5083195;28;20032;-69
2021/03/23 11:43:56;;;;;;;41.95;33.13;;;10.10;94.10;;;;;;5083216;28;20028;-69
2021/03/23 11:46:33;;;;;;;46.42;35.78;;;10.10;93.60;;;;;;5084016;28;20040;-69
2021/03/23 11:49:09;;;;;;;39.35;32.72;;;10.10;93.40;;;;;;5083703;28;20055;-69
2021/03/23 11:51:44;;;;;;;40.70;33.83;;;10.10;93.40;;;;;;5082616;28;20677;-69
2021/03/23 11:54:11;;;;;;;47.70;35.22;;;10.10;93.60;;;;;;5087323;28;20035;-69
2021/03/23 11:56:37;;;;;;;48.47;37.70;;;10.10;93.30;;;;;;5088021;28;20035;-69
2021/03/23 11:59:03;;;;;;;49.85;36.22;;;10.10;92.80;;;;;;5084259;28;20036;-69
2021/03/23 12:01:29;;;;;;;44.95;36.22;;;10.10;92.80;;;;;;5079912;28;20045;-69
2021/03/23 12:03:55;;;;;;;44.53;35.70;;;10.00;93.10;;;;;;5084518;28;20036;-69
2021/03/23 12:06:44;;;;;;;50.45;37.17;;;9.90;93.10;;;;;;5086298;28;20047;-69
2021/03/23 12:09:17;;;;;;;42.08;33.15;;;10.10;94.10;;;;;;5087669;28;20120;-69
2021/03/23 12:11:48;;;;;;;48.50;35.20;;;10.00;92.90;;;;;;5083404;28;20041;-69
2021/03/23 12:14:29;;;;;;;45.05;33.20;;;10.10;93.10;;;;;;5085430;28;20128;-69
2021/03/23 12:17:07;;;;;;;42.50;34.17;;;10.10;93.40;;;;;;5077907;28;20051;-69
2021/03/23 12:19:38;;;;;;;38.95;30.42;;;10.20;93.50;;;;;;5087575;28;20065;-69
2021/03/23 12:22:05;;;;;;;41.63;31.42;;;10.30;92.90;;;;;;5088814;28;20039;-69
2021/03/23 12:24:31;;;;;;;38.00;30.95;;;10.40;93.20;;;;;;5088105;28;20079;-69
2021/03/23 12:26:57;;;;;;;37.20;32.30;;;10.40;93.10;;;;;;5082589;28;20681;-69
2021/03/23 12:29:24;;;;;;;41.30;31.73;;;10.40;92.70;;;;;;5081542;28;20044;-69
2021/03/23 12:31:50;;;;;;;41.55;31.73;;;10.50;93.00;;;;;;5083560;28;20032;-69
2021/03/23 12:34:17;;;;;;;43.00;33.13;;;10.60;92.80;;;;;;5087311;28;20036;-69
2021/03/23 12:36:43;;;;;;;44.20;32.53;;;10.70;93.00;;;;;;5086791;28;20097;-69
2021/03/23 12:39:10;;;;;;;41.00;32.72;;;10.80;92.60;;;;;;5088902;28;20043;-69
2021/03/23 12:41:38;;;;;;;42.28;33.33;;;10.80;92.50;;;;;;5074962;28;20853;-69
2021/03/23 12:44:06;;;;;;;39.70;34.42;;;10.80;92.20;;;;;;5074640;28;20036;-69
2021/03/23 12:46:32;;;;;;;43.50;34.30;;;10.90;92.20;;;;;;5074327;28;20097;-69
2021/03/23 12:48:59;;;;;;;43.17;33.92;;;10.90;92.00;;;;;;5074845;28;20036;-69
2021/03/23 12:51:46;;;;;;;46.63;34.53;;;10.80;92.20;;;;;;5076726;28;20036;-69
2021/03/23 12:54:34;;;;;;;46.05;34.67;;;10.70;91.60;;;;;;5072047;28;20044;-69
2021/03/23 12:57:00;;;;;;;50.38;34.83;;;10.80;91.90;;;;;;5062669;28;20058;-69
2021/03/23 12:59:28;;;;;;;43.38;32.70;;;10.70;91.50;;;;;;5077081;28;20052;-69
2021/03/23 13:01:55;;;;;;;43.40;33.97;;;10.70;91.50;;;;;;5073464;28;21852;-69
2021/03/23 13:04:27;;;;;;;55.55;34.92;;;10.70;91.80;;;;;;5077534;28;20418;-69
2021/03/23 13:06:57;;;;;;;42.65;35.03;;;10.80;92.20;;;;;;5074209;28;20040;-69
2021/03/23 13:09:25;;;;;;;45.42;33.33;;;10.90;91.50;;;;;;5078353;28;20029;-69